< Typhoon 202210 2022 Season Typhoon 202212 >
Typhoon 202211 (HINNAMNOR)
General InformationTrack Information on Google MapsDetailed Wind InformationForecast History on Google MapsAccess Analytics MapList of All Images || NewsDisaster Info.JMA Disaster Info. XMLWeblogTrackbackTyphoon FrontTwiphoonTyphoon Now!Typhoon ImaginationResourceGoogle EarthGE AnimationAtom FeedGeoJSON
Detalied Best Track (Time Zone = UTC)
Year Month Day Hour Lat. Long. Pressure (hPa) Wind (kt) Class Image Chart
2022 8 28 00 24.9 150.3 1008 30 2 Image Chart
2022 8 28 03 25.4 149.8 1008 30 2 Image Chart
2022 8 28 06 25.9 149.5 1004 35 3 Image Chart
2022 8 28 09 26.2 149.0 1004 35 3 Image Chart
2022 8 28 12 26.9 148.5 1004 35 3 Image Chart
2022 8 28 15 27.1 147.9 1000 40 3 Image Chart
2022 8 28 18 27.2 147.0 1000 40 3 Image Chart
2022 8 28 21 27.4 146.1 1000 40 3 Image Chart
2022 8 29 00 27.3 145.3 985 55 4 Image Chart
2022 8 29 03 27.4 144.4 985 55 4 Image Chart
2022 8 29 06 27.4 143.2 975 65 5 Image Chart
2022 8 29 09 27.4 142.3 970 70 5 Image Chart
2022 8 29 12 27.3 141.3 960 80 5 Image Chart
2022 8 29 15 27.2 140.3 960 80 5 Image Chart
2022 8 29 18 27.1 139.2 955 85 5 Image Chart
2022 8 29 21 27.0 138.3 955 85 5 Image Chart
2022 8 30 00 26.8 137.3 950 90 5 Image Chart
2022 8 30 03 26.8 136.4 950 90 5 Image Chart
2022 8 30 06 26.8 135.4 935 100 5 Image Chart
2022 8 30 09 26.7 134.5 935 100 5 Image Chart
2022 8 30 12 26.6 133.7 920 105 5 Image Chart
2022 8 30 15 26.5 132.7 920 105 5 Image Chart
2022 8 30 18 26.3 131.9 920 105 5 Image Chart
2022 8 30 21 26.1 131.1 920 105 5 Image Chart
2022 8 31 00 25.8 130.3 920 105 5 Image Chart
2022 8 31 03 25.7 129.6 920 105 5 Image Chart
2022 8 31 06 25.4 129.0 920 105 5 Image Chart
2022 8 31 09 25.1 128.4 920 105 5 Image Chart
2022 8 31 12 24.7 127.7 935 100 5 Image Chart
2022 8 31 15 24.3 127.0 935 100 5 Image Chart
2022 8 31 18 23.7 126.3 935 100 5 Image Chart
2022 8 31 21 23.1 126.0 935 100 5 Image Chart
2022 9 1 00 22.6 125.7 920 105 5 Image Chart
2022 9 1 03 22.2 125.6 920 105 5 Image Chart
2022 9 1 06 21.8 125.5 920 105 5 Image Chart
2022 9 1 09 21.5 125.5 920 105 5 Image Chart
2022 9 1 12 21.3 125.5 920 105 5 Image Chart
2022 9 1 15 21.2 125.6 920 105 5 Image Chart
2022 9 1 18 21.3 125.5 925 100 5 Image Chart
2022 9 1 21 21.4 125.4 925 100 5 Image Chart
2022 9 2 00 21.5 125.5 935 90 5 Image Chart
2022 9 2 03 21.7 125.2 935 90 5 Image Chart
2022 9 2 06 21.9 125.0 935 90 5 Image Chart
2022 9 2 09 22.1 124.9 935 90 5 Image Chart
2022 9 2 12 22.2 124.8 945 85 5 Image Chart
2022 9 2 15 22.3 124.7 945 85 5 Image Chart
2022 9 2 18 22.5 124.6 945 85 5 Image Chart
2022 9 2 21 22.7 124.5 945 85 5 Image Chart
2022 9 3 00 23.0 124.6 955 80 5 Image Chart
2022 9 3 03 23.3 124.6 955 80 5 Image Chart
2022 9 3 06 23.8 124.7 955 80 5 Image Chart
2022 9 3 09 24.0 124.8 955 80 5 Image Chart
2022 9 3 12 24.3 124.9 955 80 5 Image Chart
2022 9 3 15 24.8 124.7 950 80 5 Image Chart
2022 9 3 18 25.1 124.6 950 80 5 Image Chart
2022 9 3 21 25.5 124.6 950 80 5 Image Chart
2022 9 4 00 26.0 124.6 950 80 5 Image Chart
2022 9 4 03 26.3 124.5 950 80 5 Image Chart
2022 9 4 06 27.0 124.7 945 85 5 Image Chart
2022 9 4 09 27.5 124.4 945 85 5 Image Chart
2022 9 4 12 27.7 124.5 945 85 5 Image Chart
2022 9 4 15 28.1 124.4 945 85 5 Image Chart
2022 9 4 18 28.6 124.7 945 85 5 Image Chart
2022 9 4 21 29.2 124.7 945 85 5 Image Chart
2022 9 5 00 29.8 124.9 950 80 5 Image Chart
2022 9 5 03 30.2 125.1 950 80 5 Image Chart
2022 9 5 06 31.0 125.5 950 80 5 Image Chart
2022 9 5 09 31.6 126.0 950 80 5 Image Chart
2022 9 5 12 32.3 126.6 950 80 5 Image Chart
2022 9 5 15 33.3 127.2 960 75 5 Image Chart
2022 9 5 18 34.2 128.1 965 70 5 Image Chart
2022 9 5 21 35.1 129.1 965 70 5 Image Chart
2022 9 6 00 36.3 130.5 965 70 5 Image Chart
2022 9 6 03 37.8 131.9 965 70 5 Image Chart
2022 9 6 06 39.8 133.6 970 65 5 Image Chart
2022 9 6 09 42.1 135.7 975 60 4 Image Chart
2022 9 6 12 44.0 137.0 980 55 6 Image Chart
Japan Meteorological Agency Best Track Data | Correction Date : 2022-09-06
< Typhoon 202210 2022 Season Typhoon 202212 >

Help